sensor_id;sensor_type;location;lat;lon;timestamp;P1;durP1;ratioP1;P2;durP2;ratioP2
47599;SDS011;33323;52.124;6.018;2022-12-20T00:01:32;2.75;;;1.10;;
47599;SDS011;33323;52.124;6.018;2022-12-20T00:04:02;2.22;;;1.30;;
47599;SDS011;33323;52.124;6.018;2022-12-20T00:06:32;1.58;;;1.38;;
47599;SDS011;33323;52.124;6.018;2022-12-20T00:09:01;1.63;;;1.30;;
47599;SDS011;33323;52.124;6.018;2022-12-20T00:11:31;2.90;;;1.48;;
47599;SDS011;33323;52.124;6.018;2022-12-20T00:13:58;2.42;;;1.42;;
47599;SDS011;33323;52.124;6.018;2022-12-20T00:16:26;2.97;;;1.25;;
47599;SDS011;33323;52.124;6.018;2022-12-20T00:18:55;5.78;;;2.13;;
47599;SDS011;33323;52.124;6.018;2022-12-20T00:21:25;2.42;;;1.42;;
47599;SDS011;33323;52.124;6.018;2022-12-20T00:23:54;2.58;;;1.30;;
47599;SDS011;33323;52.124;6.018;2022-12-20T00:26:22;6.28;;;2.92;;
47599;SDS011;33323;52.124;6.018;2022-12-20T00:28:53;2.70;;;1.50;;
47599;SDS011;33323;52.124;6.018;2022-12-20T00:31:22;2.35;;;1.40;;
47599;SDS011;33323;52.124;6.018;2022-12-20T00:33:52;3.08;;;1.65;;
47599;SDS011;33323;52.124;6.018;2022-12-20T00:36:21;11.05;;;2.03;;
47599;SDS011;33323;52.124;6.018;2022-12-20T00:38:51;2.45;;;1.42;;
47599;SDS011;33323;52.124;6.018;2022-12-20T00:41:21;2.00;;;1.30;;
47599;SDS011;33323;52.124;6.018;2022-12-20T00:43:51;2.80;;;1.48;;
47599;SDS011;33323;52.124;6.018;2022-12-20T00:46:21;3.28;;;1.38;;
47599;SDS011;33323;52.124;6.018;2022-12-20T00:48:51;2.03;;;1.30;;
47599;SDS011;33323;52.124;6.018;2022-12-20T00:51:20;3.47;;;1.38;;
47599;SDS011;33323;52.124;6.018;2022-12-20T00:53:50;1.45;;;1.10;;
47599;SDS011;33323;52.124;6.018;2022-12-20T00:56:18;1.75;;;1.30;;
47599;SDS011;33323;52.124;6.018;2022-12-20T00:58:45;3.75;;;1.45;;
47599;SDS011;33323;52.124;6.018;2022-12-20T01:01:17;4.20;;;2.22;;
47599;SDS011;33323;52.124;6.018;2022-12-20T01:03:53;2.75;;;1.40;;
47599;SDS011;33323;52.124;6.018;2022-12-20T01:06:21;3.60;;;0.75;;
47599;SDS011;33323;52.124;6.018;2022-12-20T01:08:51;1.88;;;1.52;;
47599;SDS011;33323;52.124;6.018;2022-12-20T01:11:20;6.10;;;1.77;;
47599;SDS011;33323;52.124;6.018;2022-12-20T01:13:52;4.88;;;1.13;;
47599;SDS011;33323;52.124;6.018;2022-12-20T01:16:26;3.70;;;1.08;;
47599;SDS011;33323;52.124;6.018;2022-12-20T01:18:59;2.03;;;1.20;;
47599;SDS011;33323;52.124;6.018;2022-12-20T01:21:27;1.95;;;1.38;;
47599;SDS011;33323;52.124;6.018;2022-12-20T01:23:54;2.92;;;1.20;;
47599;SDS011;33323;52.124;6.018;2022-12-20T01:26:22;3.20;;;1.45;;
47599;SDS011;33323;52.124;6.018;2022-12-20T01:28:55;2.95;;;1.00;;
47599;SDS011;33323;52.124;6.018;2022-12-20T01:31:25;5.07;;;2.08;;
47599;SDS011;33323;52.124;6.018;2022-12-20T01:33:54;1.20;;;0.90;;
47599;SDS011;33323;52.124;6.018;2022-12-20T01:36:22;2.05;;;0.98;;
47599;SDS011;33323;52.124;6.018;2022-12-20T01:38:56;4.85;;;1.15;;
47599;SDS011;33323;52.124;6.018;2022-12-20T01:41:30;1.38;;;1.00;;
47599;SDS011;33323;52.124;6.018;2022-12-20T01:46:27;3.80;;;1.33;;
47599;SDS011;33323;52.124;6.018;2022-12-20T01:49:03;3.70;;;1.27;;
47599;SDS011;33323;52.124;6.018;2022-12-20T01:51:38;2.05;;;1.35;;
47599;SDS011;33323;52.124;6.018;2022-12-20T01:54:11;5.70;;;2.40;;
47599;SDS011;33323;52.124;6.018;2022-12-20T01:56:46;3.95;;;1.33;;
47599;SDS011;33323;52.124;6.018;2022-12-20T01:59:18;2.38;;;1.10;;
47599;SDS011;33323;52.124;6.018;2022-12-20T02:01:46;3.10;;;1.30;;
47599;SDS011;33323;52.124;6.018;2022-12-20T02:04:13;2.33;;;1.58;;
47599;SDS011;33323;52.124;6.018;2022-12-20T02:06:41;2.10;;;1.10;;
47599;SDS011;33323;52.124;6.018;2022-12-20T02:09:08;6.28;;;2.00;;
47599;SDS011;33323;52.124;6.018;2022-12-20T02:11:57;4.13;;;1.55;;
47599;SDS011;33323;52.124;6.018;2022-12-20T02:15:01;2.72;;;1.80;;
47599;SDS011;33323;52.124;6.018;2022-12-20T02:20:42;3.25;;;1.42;;
47599;SDS011;33323;52.124;6.018;2022-12-20T02:29:31;7.20;;;2.17;;
47599;SDS011;33323;52.124;6.018;2022-12-20T02:32:13;5.18;;;2.20;;
47599;SDS011;33323;52.124;6.018;2022-12-20T02:34:50;7.35;;;2.22;;
47599;SDS011;33323;52.124;6.018;2022-12-20T02:37:18;3.53;;;1.05;;
47599;SDS011;33323;52.124;6.018;2022-12-20T02:39:45;3.50;;;1.60;;
47599;SDS011;33323;52.124;6.018;2022-12-20T02:42:13;5.78;;;2.72;;
47599;SDS011;33323;52.124;6.018;2022-12-20T02:44:45;2.85;;;1.38;;
47599;SDS011;33323;52.124;6.018;2022-12-20T02:50:41;2.50;;;1.17;;
47599;SDS011;33323;52.124;6.018;2022-12-20T02:53:12;2.40;;;1.50;;
47599;SDS011;33323;52.124;6.018;2022-12-20T02:55:47;2.42;;;1.63;;
47599;SDS011;33323;52.124;6.018;2022-12-20T02:58:51;4.13;;;1.75;;
47599;SDS011;33323;52.124;6.018;2022-12-20T03:01:27;4.53;;;2.58;;
47599;SDS011;33323;52.124;6.018;2022-12-20T03:04:02;11.07;;;2.70;;
47599;SDS011;33323;52.124;6.018;2022-12-20T03:06:31;4.25;;;2.00;;
47599;SDS011;33323;52.124;6.018;2022-12-20T03:08:58;4.60;;;2.15;;
47599;SDS011;33323;52.124;6.018;2022-12-20T03:11:28;2.25;;;1.55;;
47599;SDS011;33323;52.124;6.018;2022-12-20T03:13:55;2.95;;;2.10;;
47599;SDS011;33323;52.124;6.018;2022-12-20T03:16:23;4.15;;;2.20;;
47599;SDS011;33323;52.124;6.018;2022-12-20T03:18:50;3.13;;;2.20;;
47599;SDS011;33323;52.124;6.018;2022-12-20T03:21:17;5.18;;;3.33;;
47599;SDS011;33323;52.124;6.018;2022-12-20T03:23:44;11.98;;;2.38;;
47599;SDS011;33323;52.124;6.018;2022-12-20T03:26:12;3.30;;;2.33;;
47599;SDS011;33323;52.124;6.018;2022-12-20T03:28:43;6.15;;;2.97;;
47599;SDS011;33323;52.124;6.018;2022-12-20T03:31:14;1.58;;;1.15;;
47599;SDS011;33323;52.124;6.018;2022-12-20T03:33:46;6.63;;;2.28;;
47599;SDS011;33323;52.124;6.018;2022-12-20T03:36:13;2.75;;;1.85;;
47599;SDS011;33323;52.124;6.018;2022-12-20T03:38:40;8.77;;;2.47;;
47599;SDS011;33323;52.124;6.018;2022-12-20T03:41:08;6.55;;;3.45;;
47599;SDS011;33323;52.124;6.018;2022-12-20T03:43:35;4.50;;;2.30;;
47599;SDS011;33323;52.124;6.018;2022-12-20T03:46:03;4.05;;;2.40;;
47599;SDS011;33323;52.124;6.018;2022-12-20T03:48:36;2.80;;;2.38;;
47599;SDS011;33323;52.124;6.018;2022-12-20T03:51:03;3.60;;;2.50;;
47599;SDS011;33323;52.124;6.018;2022-12-20T03:53:30;2.97;;;2.00;;
47599;SDS011;33323;52.124;6.018;2022-12-20T03:55:58;4.32;;;2.28;;
47599;SDS011;33323;52.124;6.018;2022-12-20T03:58:25;3.15;;;1.40;;
47599;SDS011;33323;52.124;6.018;2022-12-20T04:00:52;4.10;;;2.03;;
47599;SDS011;33323;52.124;6.018;2022-12-20T04:03:35;3.58;;;1.80;;
47599;SDS011;33323;52.124;6.018;2022-12-20T04:06:02;3.35;;;2.05;;
47599;SDS011;33323;52.124;6.018;2022-12-20T04:08:30;4.95;;;2.30;;
47599;SDS011;33323;52.124;6.018;2022-12-20T04:10:57;3.35;;;1.83;;
47599;SDS011;33323;52.124;6.018;2022-12-20T04:13:53;2.33;;;1.63;;
47599;SDS011;33323;52.124;6.018;2022-12-20T04:16:25;2.53;;;1.35;;
47599;SDS011;33323;52.124;6.018;2022-12-20T04:18:55;2.42;;;1.73;;
47599;SDS011;33323;52.124;6.018;2022-12-20T04:21:23;4.13;;;2.50;;
47599;SDS011;33323;52.124;6.018;2022-12-20T04:23:57;5.07;;;2.30;;
47599;SDS011;33323;52.124;6.018;2022-12-20T04:26:55;2.88;;;1.67;;
47599;SDS011;33323;52.124;6.018;2022-12-20T04:29:22;6.05;;;2.38;;
47599;SDS011;33323;52.124;6.018;2022-12-20T04:31:50;6.07;;;2.25;;
47599;SDS011;33323;52.124;6.018;2022-12-20T04:34:18;4.00;;;2.47;;
47599;SDS011;33323;52.124;6.018;2022-12-20T04:36:46;4.07;;;2.17;;
47599;SDS011;33323;52.124;6.018;2022-12-20T04:42:08;3.90;;;2.28;;
47599;SDS011;33323;52.124;6.018;2022-12-20T04:44:36;3.13;;;2.50;;
47599;SDS011;33323;52.124;6.018;2022-12-20T04:47:03;4.03;;;2.05;;
47599;SDS011;33323;52.124;6.018;2022-12-20T04:49:31;4.55;;;2.65;;
47599;SDS011;33323;52.124;6.018;2022-12-20T04:51:58;2.55;;;1.90;;
47599;SDS011;33323;52.124;6.018;2022-12-20T04:54:46;4.63;;;1.80;;
47599;SDS011;33323;52.124;6.018;2022-12-20T04:57:19;3.28;;;2.03;;
47599;SDS011;33323;52.124;6.018;2022-12-20T04:59:47;3.17;;;1.85;;
47599;SDS011;33323;52.124;6.018;2022-12-20T05:02:14;3.20;;;1.55;;
47599;SDS011;33323;52.124;6.018;2022-12-20T05:04:49;3.53;;;2.40;;
47599;SDS011;33323;52.124;6.018;2022-12-20T05:07:16;5.25;;;3.50;;
47599;SDS011;33323;52.124;6.018;2022-12-20T05:09:49;6.60;;;2.20;;
47599;SDS011;33323;52.124;6.018;2022-12-20T05:12:16;6.78;;;2.22;;
47599;SDS011;33323;52.124;6.018;2022-12-20T05:14:43;5.78;;;2.40;;
47599;SDS011;33323;52.124;6.018;2022-12-20T05:17:13;2.70;;;2.15;;
47599;SDS011;33323;52.124;6.018;2022-12-20T05:19:40;3.15;;;1.02;;
47599;SDS011;33323;52.124;6.018;2022-12-20T05:22:08;4.80;;;1.77;;
47599;SDS011;33323;52.124;6.018;2022-12-20T05:25:04;7.13;;;3.03;;
47599;SDS011;33323;52.124;6.018;2022-12-20T05:27:52;6.45;;;2.33;;
47599;SDS011;33323;52.124;6.018;2022-12-20T05:30:22;8.15;;;2.30;;
47599;SDS011;33323;52.124;6.018;2022-12-20T05:32:50;4.70;;;2.67;;
47599;SDS011;33323;52.124;6.018;2022-12-20T05:35:17;2.72;;;1.77;;
47599;SDS011;33323;52.124;6.018;2022-12-20T05:37:50;4.38;;;1.83;;
47599;SDS011;33323;52.124;6.018;2022-12-20T05:40:19;4.53;;;2.60;;
47599;SDS011;33323;52.124;6.018;2022-12-20T05:42:46;2.58;;;1.85;;
47599;SDS011;33323;52.124;6.018;2022-12-20T05:45:13;4.30;;;2.83;;
47599;SDS011;33323;52.124;6.018;2022-12-20T05:47:49;3.42;;;2.67;;
47599;SDS011;33323;52.124;6.018;2022-12-20T05:50:17;3.47;;;1.75;;
47599;SDS011;33323;52.124;6.018;2022-12-20T05:55:38;4.88;;;2.13;;
47599;SDS011;33323;52.124;6.018;2022-12-20T05:58:14;6.13;;;3.03;;
47599;SDS011;33323;52.124;6.018;2022-12-20T06:00:50;3.78;;;2.47;;
47599;SDS011;33323;52.124;6.018;2022-12-20T06:03:18;2.85;;;1.98;;
47599;SDS011;33323;52.124;6.018;2022-12-20T06:05:45;4.35;;;3.05;;
47599;SDS011;33323;52.124;6.018;2022-12-20T06:08:19;3.90;;;2.40;;
47599;SDS011;33323;52.124;6.018;2022-12-20T06:10:48;2.35;;;1.88;;
47599;SDS011;33323;52.124;6.018;2022-12-20T06:13:16;5.28;;;3.42;;
47599;SDS011;33323;52.124;6.018;2022-12-20T06:15:46;4.07;;;2.80;;
47599;SDS011;33323;52.124;6.018;2022-12-20T06:18:13;5.28;;;2.85;;
47599;SDS011;33323;52.124;6.018;2022-12-20T06:20:40;6.00;;;3.22;;
47599;SDS011;33323;52.124;6.018;2022-12-20T06:23:11;6.47;;;3.45;;
47599;SDS011;33323;52.124;6.018;2022-12-20T06:25:45;6.53;;;3.22;;
47599;SDS011;33323;52.124;6.018;2022-12-20T06:28:14;4.05;;;2.58;;
47599;SDS011;33323;52.124;6.018;2022-12-20T06:30:51;8.35;;;3.25;;
47599;SDS011;33323;52.124;6.018;2022-12-20T06:33:33;3.78;;;2.78;;
47599;SDS011;33323;52.124;6.018;2022-12-20T06:36:02;7.25;;;3.38;;
47599;SDS011;33323;52.124;6.018;2022-12-20T06:38:29;6.82;;;2.95;;
47599;SDS011;33323;52.124;6.018;2022-12-20T06:40:56;4.43;;;3.20;;
47599;SDS011;33323;52.124;6.018;2022-12-20T06:43:24;5.15;;;2.80;;
47599;SDS011;33323;52.124;6.018;2022-12-20T06:45:51;5.13;;;2.90;;
47599;SDS011;33323;52.124;6.018;2022-12-20T06:48:18;5.50;;;2.75;;
47599;SDS011;33323;52.124;6.018;2022-12-20T06:50:47;3.95;;;2.50;;
47599;SDS011;33323;52.124;6.018;2022-12-20T06:53:22;22.08;;;3.13;;
47599;SDS011;33323;52.124;6.018;2022-12-20T06:55:49;5.25;;;2.78;;
47599;SDS011;33323;52.124;6.018;2022-12-20T06:58:18;5.53;;;2.70;;
47599;SDS011;33323;52.124;6.018;2022-12-20T07:00:47;4.78;;;2.50;;
47599;SDS011;33323;52.124;6.018;2022-12-20T07:03:14;4.60;;;1.98;;
47599;SDS011;33323;52.124;6.018;2022-12-20T07:05:42;4.10;;;2.05;;
47599;SDS011;33323;52.124;6.018;2022-12-20T07:08:09;7.72;;;2.67;;
47599;SDS011;33323;52.124;6.018;2022-12-20T07:10:36;5.18;;;2.38;;
47599;SDS011;33323;52.124;6.018;2022-12-20T07:13:03;3.83;;;2.92;;
47599;SDS011;33323;52.124;6.018;2022-12-20T07:15:30;2.92;;;2.08;;
47599;SDS011;33323;52.124;6.018;2022-12-20T07:17:58;4.47;;;2.15;;
47599;SDS011;33323;52.124;6.018;2022-12-20T07:20:25;3.65;;;1.42;;
47599;SDS011;33323;52.124;6.018;2022-12-20T07:22:52;4.30;;;2.15;;
47599;SDS011;33323;52.124;6.018;2022-12-20T07:25:19;2.72;;;1.80;;
47599;SDS011;33323;52.124;6.018;2022-12-20T07:27:47;4.15;;;1.10;;
47599;SDS011;33323;52.124;6.018;2022-12-20T07:30:18;2.40;;;1.67;;
47599;SDS011;33323;52.124;6.018;2022-12-20T07:32:46;4.30;;;2.25;;
47599;SDS011;33323;52.124;6.018;2022-12-20T07:35:13;2.40;;;1.20;;
47599;SDS011;33323;52.124;6.018;2022-12-20T07:37:41;3.47;;;1.52;;
47599;SDS011;33323;52.124;6.018;2022-12-20T07:40:09;1.73;;;1.58;;
47599;SDS011;33323;52.124;6.018;2022-12-20T07:42:38;1.80;;;1.05;;
47599;SDS011;33323;52.124;6.018;2022-12-20T07:45:13;3.65;;;1.33;;
47599;SDS011;33323;52.124;6.018;2022-12-20T07:47:41;5.22;;;1.77;;
47599;SDS011;33323;52.124;6.018;2022-12-20T07:50:09;3.42;;;1.85;;
47599;SDS011;33323;52.124;6.018;2022-12-20T07:52:37;5.05;;;1.75;;
47599;SDS011;33323;52.124;6.018;2022-12-20T07:55:07;1.77;;;1.20;;
47599;SDS011;33323;52.124;6.018;2022-12-20T07:57:43;3.40;;;1.10;;
47599;SDS011;33323;52.124;6.018;2022-12-20T08:00:14;2.72;;;1.98;;
47599;SDS011;33323;52.124;6.018;2022-12-20T08:02:54;3.60;;;1.40;;
47599;SDS011;33323;52.124;6.018;2022-12-20T08:05:47;2.45;;;1.70;;
47599;SDS011;33323;52.124;6.018;2022-12-20T08:08:19;2.80;;;1.80;;
47599;SDS011;33323;52.124;6.018;2022-12-20T08:10:47;3.67;;;1.85;;
47599;SDS011;33323;52.124;6.018;2022-12-20T08:13:15;3.45;;;1.85;;
47599;SDS011;33323;52.124;6.018;2022-12-20T08:15:43;2.03;;;1.67;;
47599;SDS011;33323;52.124;6.018;2022-12-20T08:18:10;4.53;;;1.48;;
47599;SDS011;33323;52.124;6.018;2022-12-20T08:20:37;3.58;;;1.58;;
47599;SDS011;33323;52.124;6.018;2022-12-20T08:23:04;3.38;;;1.30;;
47599;SDS011;33323;52.124;6.018;2022-12-20T08:25:33;2.97;;;1.70;;
47599;SDS011;33323;52.124;6.018;2022-12-20T08:28:07;2.50;;;1.30;;
47599;SDS011;33323;52.124;6.018;2022-12-20T08:30:34;5.70;;;1.90;;
47599;SDS011;33323;52.124;6.018;2022-12-20T08:33:02;1.23;;;0.88;;
47599;SDS011;33323;52.124;6.018;2022-12-20T08:35:30;1.20;;;1.10;;
47599;SDS011;33323;52.124;6.018;2022-12-20T08:37:58;3.40;;;1.77;;
47599;SDS011;33323;52.124;6.018;2022-12-20T08:40:25;4.68;;;1.40;;
47599;SDS011;33323;52.124;6.018;2022-12-20T08:42:52;1.77;;;1.60;;
47599;SDS011;33323;52.124;6.018;2022-12-20T08:45:19;2.95;;;1.00;;
47599;SDS011;33323;52.124;6.018;2022-12-20T08:47:46;2.53;;;1.50;;
47599;SDS011;33323;52.124;6.018;2022-12-20T08:50:13;1.88;;;1.48;;
47599;SDS011;33323;52.124;6.018;2022-12-20T08:52:40;2.85;;;1.40;;
47599;SDS011;33323;52.124;6.018;2022-12-20T08:55:07;3.65;;;1.52;;
47599;SDS011;33323;52.124;6.018;2022-12-20T08:57:38;2.47;;;1.48;;
47599;SDS011;33323;52.124;6.018;2022-12-20T09:00:05;1.35;;;0.73;;
47599;SDS011;33323;52.124;6.018;2022-12-20T09:02:33;1.58;;;0.90;;
47599;SDS011;33323;52.124;6.018;2022-12-20T09:05:03;2.05;;;1.08;;
47599;SDS011;33323;52.124;6.018;2022-12-20T09:07:30;3.33;;;1.27;;
47599;SDS011;33323;52.124;6.018;2022-12-20T09:09:57;2.97;;;1.40;;
47599;SDS011;33323;52.124;6.018;2022-12-20T09:12:24;5.72;;;2.10;;
47599;SDS011;33323;52.124;6.018;2022-12-20T09:14:52;1.85;;;1.40;;
47599;SDS011;33323;52.124;6.018;2022-12-20T09:17:19;1.63;;;1.30;;
47599;SDS011;33323;52.124;6.018;2022-12-20T09:19:46;6.95;;;1.95;;
47599;SDS011;33323;52.124;6.018;2022-12-20T09:22:14;7.80;;;1.85;;
47599;SDS011;33323;52.124;6.018;2022-12-20T09:24:41;2.80;;;1.23;;
47599;SDS011;33323;52.124;6.018;2022-12-20T09:27:08;2.28;;;1.30;;
47599;SDS011;33323;52.124;6.018;2022-12-20T09:29:35;1.05;;;0.93;;
47599;SDS011;33323;52.124;6.018;2022-12-20T09:32:02;4.90;;;1.73;;
47599;SDS011;33323;52.124;6.018;2022-12-20T09:34:30;3.20;;;1.45;;
47599;SDS011;33323;52.124;6.018;2022-12-20T09:36:57;2.53;;;1.50;;
47599;SDS011;33323;52.124;6.018;2022-12-20T09:39:24;4.43;;;1.42;;
47599;SDS011;33323;52.124;6.018;2022-12-20T09:41:51;3.03;;;2.13;;
47599;SDS011;33323;52.124;6.018;2022-12-20T09:47:00;3.00;;;1.35;;
47599;SDS011;33323;52.124;6.018;2022-12-20T09:49:38;4.55;;;2.40;;
47599;SDS011;33323;52.124;6.018;2022-12-20T10:00:16;2.33;;;1.50;;
47599;SDS011;33323;52.124;6.018;2022-12-20T10:02:45;2.63;;;1.65;;
47599;SDS011;33323;52.124;6.018;2022-12-20T10:08:57;2.38;;;1.10;;
47599;SDS011;33323;52.124;6.018;2022-12-20T10:17:10;2.25;;;1.55;;
47599;SDS011;33323;52.124;6.018;2022-12-20T10:22:55;4.68;;;2.50;;
47599;SDS011;33323;52.124;6.018;2022-12-20T10:25:57;2.40;;;1.58;;
47599;SDS011;33323;52.124;6.018;2022-12-20T10:28:27;2.65;;;1.77;;
47599;SDS011;33323;52.124;6.018;2022-12-20T10:33:31;8.40;;;2.50;;
47599;SDS011;33323;52.124;6.018;2022-12-20T10:38:48;5.85;;;1.75;;
47599;SDS011;33323;52.124;6.018;2022-12-20T10:41:26;5.80;;;1.88;;
47599;SDS011;33323;52.124;6.018;2022-12-20T10:44:00;4.05;;;2.03;;
47599;SDS011;33323;52.124;6.018;2022-12-20T10:46:40;1.20;;;0.77;;
47599;SDS011;33323;52.124;6.018;2022-12-20T10:49:20;3.00;;;1.10;;
47599;SDS011;33323;52.124;6.018;2022-12-20T10:51:58;3.70;;;1.60;;
47599;SDS011;33323;52.124;6.018;2022-12-20T10:59:43;3.70;;;2.10;;
47599;SDS011;33323;52.124;6.018;2022-12-20T11:02:36;5.82;;;1.95;;
47599;SDS011;33323;52.124;6.018;2022-12-20T11:07:49;2.53;;;1.42;;
47599;SDS011;33323;52.124;6.018;2022-12-20T11:10:43;4.32;;;2.50;;
47599;SDS011;33323;52.124;6.018;2022-12-20T11:13:21;3.58;;;1.35;;
47599;SDS011;33323;52.124;6.018;2022-12-20T11:15:54;4.40;;;2.40;;
47599;SDS011;33323;52.124;6.018;2022-12-20T11:18:30;6.80;;;2.92;;
47599;SDS011;33323;52.124;6.018;2022-12-20T11:24:32;5.30;;;2.43;;
47599;SDS011;33323;52.124;6.018;2022-12-20T11:30:16;5.97;;;2.55;;
47599;SDS011;33323;52.124;6.018;2022-12-20T11:38:32;3.20;;;2.03;;
47599;SDS011;33323;52.124;6.018;2022-12-20T11:53:49;7.82;;;3.08;;
47599;SDS011;33323;52.124;6.018;2022-12-20T11:56:29;3.53;;;2.30;;
47599;SDS011;33323;52.124;6.018;2022-12-20T12:02:07;8.77;;;3.22;;
47599;SDS011;33323;52.124;6.018;2022-12-20T12:04:55;5.18;;;2.78;;
47599;SDS011;33323;52.124;6.018;2022-12-20T12:07:46;7.65;;;3.08;;
47599;SDS011;33323;52.124;6.018;2022-12-20T12:10:23;4.82;;;2.88;;
47599;SDS011;33323;52.124;6.018;2022-12-20T12:15:31;5.18;;;3.03;;
47599;SDS011;33323;52.124;6.018;2022-12-20T12:18:28;5.03;;;2.95;;
47599;SDS011;33323;52.124;6.018;2022-12-20T12:21:02;2.13;;;1.70;;
47599;SDS011;33323;52.124;6.018;2022-12-20T12:26:31;6.07;;;2.92;;
47599;SDS011;33323;52.124;6.018;2022-12-20T12:40:26;5.25;;;3.35;;
47599;SDS011;33323;52.124;6.018;2022-12-20T12:44:00;5.47;;;2.40;;
47599;SDS011;33323;52.124;6.018;2022-12-20T12:48:58;4.85;;;2.90;;
47599;SDS011;33323;52.124;6.018;2022-12-20T12:51:39;4.97;;;2.92;;
47599;SDS011;33323;52.124;6.018;2022-12-20T12:54:20;6.85;;;3.30;;
47599;SDS011;33323;52.124;6.018;2022-12-20T12:56:52;5.55;;;3.00;;
47599;SDS011;33323;52.124;6.018;2022-12-20T13:10:00;5.70;;;2.45;;
47599;SDS011;33323;52.124;6.018;2022-12-20T13:18:01;3.97;;;3.00;;
47599;SDS011;33323;52.124;6.018;2022-12-20T13:24:27;4.28;;;2.45;;
47599;SDS011;33323;52.124;6.018;2022-12-20T13:27:22;5.97;;;3.42;;
47599;SDS011;33323;52.124;6.018;2022-12-20T13:37:54;8.88;;;4.07;;
47599;SDS011;33323;52.124;6.018;2022-12-20T13:40:38;3.90;;;2.72;;
47599;SDS011;33323;52.124;6.018;2022-12-20T13:45:49;7.10;;;3.70;;
47599;SDS011;33323;52.124;6.018;2022-12-20T13:48:24;6.88;;;3.28;;
47599;SDS011;33323;52.124;6.018;2022-12-20T13:50:57;5.70;;;3.80;;
47599;SDS011;33323;52.124;6.018;2022-12-20T13:53:25;4.50;;;3.58;;
47599;SDS011;33323;52.124;6.018;2022-12-20T13:55:53;6.38;;;4.03;;
47599;SDS011;33323;52.124;6.018;2022-12-20T13:58:22;6.82;;;4.03;;
47599;SDS011;33323;52.124;6.018;2022-12-20T14:01:05;8.35;;;3.92;;
47599;SDS011;33323;52.124;6.018;2022-12-20T14:03:41;7.85;;;3.88;;
47599;SDS011;33323;52.124;6.018;2022-12-20T14:06:13;3.95;;;3.30;;
47599;SDS011;33323;52.124;6.018;2022-12-20T14:08:51;6.20;;;4.30;;
47599;SDS011;33323;52.124;6.018;2022-12-20T14:11:20;4.15;;;3.75;;
47599;SDS011;33323;52.124;6.018;2022-12-20T14:13:59;5.97;;;3.92;;
47599;SDS011;33323;52.124;6.018;2022-12-20T14:16:29;5.97;;;3.75;;
47599;SDS011;33323;52.124;6.018;2022-12-20T14:21:33;6.57;;;4.05;;
47599;SDS011;33323;52.124;6.018;2022-12-20T14:24:05;4.30;;;3.58;;
47599;SDS011;33323;52.124;6.018;2022-12-20T14:26:42;5.60;;;2.95;;
47599;SDS011;33323;52.124;6.018;2022-12-20T14:29:17;6.00;;;3.85;;
47599;SDS011;33323;52.124;6.018;2022-12-20T14:31:50;6.47;;;3.88;;
47599;SDS011;33323;52.124;6.018;2022-12-20T14:34:20;4.97;;;3.95;;
47599;SDS011;33323;52.124;6.018;2022-12-20T14:42:36;4.20;;;2.95;;
47599;SDS011;33323;52.124;6.018;2022-12-20T14:47:35;5.40;;;3.92;;
47599;SDS011;33323;52.124;6.018;2022-12-20T14:50:05;6.57;;;4.53;;
47599;SDS011;33323;52.124;6.018;2022-12-20T14:53:03;5.57;;;4.25;;
47599;SDS011;33323;52.124;6.018;2022-12-20T14:55:50;4.55;;;3.63;;
47599;SDS011;33323;52.124;6.018;2022-12-20T14:58:27;4.65;;;3.53;;
47599;SDS011;33323;52.124;6.018;2022-12-20T15:01:12;4.80;;;3.72;;
47599;SDS011;33323;52.124;6.018;2022-12-20T15:06:42;6.00;;;4.07;;
47599;SDS011;33323;52.124;6.018;2022-12-20T15:09:10;6.05;;;4.22;;
47599;SDS011;33323;52.124;6.018;2022-12-20T15:11:37;7.90;;;3.63;;
47599;SDS011;33323;52.124;6.018;2022-12-20T15:17:03;5.50;;;4.18;;
47599;SDS011;33323;52.124;6.018;2022-12-20T15:19:41;4.78;;;3.70;;
47599;SDS011;33323;52.124;6.018;2022-12-20T15:22:12;6.78;;;4.05;;
47599;SDS011;33323;52.124;6.018;2022-12-20T15:24:42;6.78;;;4.15;;
47599;SDS011;33323;52.124;6.018;2022-12-20T15:27:11;7.05;;;3.17;;
47599;SDS011;33323;52.124;6.018;2022-12-20T15:29:42;5.20;;;4.13;;
47599;SDS011;33323;52.124;6.018;2022-12-20T15:32:23;6.15;;;4.40;;
47599;SDS011;33323;52.124;6.018;2022-12-20T15:34:55;13.27;;;4.72;;
47599;SDS011;33323;52.124;6.018;2022-12-20T15:37:22;5.70;;;4.47;;
47599;SDS011;33323;52.124;6.018;2022-12-20T15:39:49;5.65;;;4.90;;
47599;SDS011;33323;52.124;6.018;2022-12-20T15:42:17;7.85;;;3.90;;
47599;SDS011;33323;52.124;6.018;2022-12-20T15:44:46;5.18;;;3.65;;
47599;SDS011;33323;52.124;6.018;2022-12-20T15:47:13;5.90;;;4.25;;
47599;SDS011;33323;52.124;6.018;2022-12-20T15:49:42;5.75;;;4.43;;
47599;SDS011;33323;52.124;6.018;2022-12-20T15:52:19;6.57;;;4.75;;
47599;SDS011;33323;52.124;6.018;2022-12-20T15:54:49;8.02;;;5.18;;
47599;SDS011;33323;52.124;6.018;2022-12-20T15:57:16;6.03;;;4.75;;
47599;SDS011;33323;52.124;6.018;2022-12-20T15:59:44;5.90;;;5.03;;
47599;SDS011;33323;52.124;6.018;2022-12-20T16:02:27;5.05;;;4.38;;
47599;SDS011;33323;52.124;6.018;2022-12-20T16:04:57;6.45;;;5.25;;
47599;SDS011;33323;52.124;6.018;2022-12-20T16:07:24;8.13;;;5.13;;
47599;SDS011;33323;52.124;6.018;2022-12-20T16:09:53;6.88;;;5.80;;
47599;SDS011;33323;52.124;6.018;2022-12-20T16:12:22;8.23;;;5.75;;
47599;SDS011;33323;52.124;6.018;2022-12-20T16:14:53;7.88;;;4.90;;
47599;SDS011;33323;52.124;6.018;2022-12-20T16:17:21;8.38;;;5.75;;
47599;SDS011;33323;52.124;6.018;2022-12-20T16:19:48;6.90;;;5.22;;
47599;SDS011;33323;52.124;6.018;2022-12-20T16:22:19;8.57;;;5.63;;
47599;SDS011;33323;52.124;6.018;2022-12-20T16:24:48;7.85;;;6.25;;
47599;SDS011;33323;52.124;6.018;2022-12-20T16:27:17;9.88;;;6.50;;
47599;SDS011;33323;52.124;6.018;2022-12-20T16:29:45;8.10;;;7.13;;
47599;SDS011;33323;52.124;6.018;2022-12-20T16:32:13;10.00;;;5.30;;
47599;SDS011;33323;52.124;6.018;2022-12-20T16:34:43;9.35;;;6.53;;
47599;SDS011;33323;52.124;6.018;2022-12-20T16:37:10;11.38;;;7.43;;
47599;SDS011;33323;52.124;6.018;2022-12-20T16:39:38;9.25;;;7.28;;
47599;SDS011;33323;52.124;6.018;2022-12-20T16:42:13;8.82;;;6.38;;
47599;SDS011;33323;52.124;6.018;2022-12-20T16:44:52;8.65;;;6.55;;
47599;SDS011;33323;52.124;6.018;2022-12-20T16:47:19;8.05;;;6.43;;
47599;SDS011;33323;52.124;6.018;2022-12-20T16:49:47;13.07;;;6.93;;
47599;SDS011;33323;52.124;6.018;2022-12-20T16:52:19;7.93;;;5.93;;
47599;SDS011;33323;52.124;6.018;2022-12-20T16:54:48;7.93;;;5.32;;
47599;SDS011;33323;52.124;6.018;2022-12-20T16:57:15;8.40;;;5.70;;
47599;SDS011;33323;52.124;6.018;2022-12-20T16:59:42;7.90;;;5.35;;
47599;SDS011;33323;52.124;6.018;2022-12-20T17:02:25;7.00;;;4.85;;
47599;SDS011;33323;52.124;6.018;2022-12-20T17:04:58;6.82;;;5.53;;
47599;SDS011;33323;52.124;6.018;2022-12-20T17:07:26;9.02;;;6.13;;
47599;SDS011;33323;52.124;6.018;2022-12-20T17:09:53;8.27;;;5.78;;
47599;SDS011;33323;52.124;6.018;2022-12-20T17:12:20;6.43;;;5.32;;
47599;SDS011;33323;52.124;6.018;2022-12-20T17:14:48;5.85;;;4.78;;
47599;SDS011;33323;52.124;6.018;2022-12-20T17:17:15;9.55;;;5.25;;
47599;SDS011;33323;52.124;6.018;2022-12-20T17:19:42;7.35;;;4.63;;
47599;SDS011;33323;52.124;6.018;2022-12-20T17:22:10;6.88;;;4.75;;
47599;SDS011;33323;52.124;6.018;2022-12-20T17:24:51;5.97;;;4.60;;
47599;SDS011;33323;52.124;6.018;2022-12-20T17:27:18;11.75;;;5.88;;
47599;SDS011;33323;52.124;6.018;2022-12-20T17:29:45;5.18;;;4.00;;
47599;SDS011;33323;52.124;6.018;2022-12-20T17:32:19;6.45;;;4.68;;
47599;SDS011;33323;52.124;6.018;2022-12-20T17:34:49;9.05;;;5.50;;
47599;SDS011;33323;52.124;6.018;2022-12-20T17:37:17;10.00;;;4.47;;
47599;SDS011;33323;52.124;6.018;2022-12-20T17:39:44;7.45;;;5.50;;
47599;SDS011;33323;52.124;6.018;2022-12-20T17:42:11;9.60;;;5.88;;
47599;SDS011;33323;52.124;6.018;2022-12-20T17:44:39;8.05;;;5.22;;
47599;SDS011;33323;52.124;6.018;2022-12-20T17:47:07;7.95;;;5.75;;